sensor_id;sensor_type;location;lat;lon;timestamp;pressure;altitude;pressure_sealevel;temperature;humidity
68366;BME280;55283;51.466;5.478;2023-03-26T00:01:29;100578.56;;;20.98;46.58
68366;BME280;55283;51.466;5.478;2023-03-26T00:03:58;100585.72;;;20.99;46.53
68366;BME280;55283;51.466;5.478;2023-03-26T00:06:26;100571.50;;;20.94;46.57
68366;BME280;55283;51.466;5.478;2023-03-26T00:08:52;100578.22;;;20.96;46.48
68366;BME280;55283;51.466;5.478;2023-03-26T00:11:19;100575.31;;;21.00;46.42
68366;BME280;55283;51.466;5.478;2023-03-26T00:13:46;100578.09;;;21.00;46.41
68366;BME280;55283;51.466;5.478;2023-03-26T00:16:14;100578.09;;;21.00;46.50
68366;BME280;55283;51.466;5.478;2023-03-26T00:18:40;100566.25;;;20.96;46.47
68366;BME280;55283;51.466;5.478;2023-03-26T00:21:07;100555.16;;;20.92;46.32
68366;BME280;55283;51.466;5.478;2023-03-26T00:23:35;100571.72;;;20.99;46.55
68366;BME280;55283;51.466;5.478;2023-03-26T00:26:02;100570.94;;;20.99;46.56
68366;BME280;55283;51.466;5.478;2023-03-26T00:28:28;100559.53;;;20.93;46.54
68366;BME280;55283;51.466;5.478;2023-03-26T00:30:58;100543.41;;;20.85;46.48
68366;BME280;55283;51.466;5.478;2023-03-26T00:33:23;100566.25;;;20.96;46.37
68366;BME280;55283;51.466;5.478;2023-03-26T00:35:53;100553.91;;;20.93;46.47
68366;BME280;55283;51.466;5.478;2023-03-26T00:38:20;100559.84;;;20.95;46.59
68366;BME280;55283;51.466;5.478;2023-03-26T00:40:47;100566.69;;;20.94;46.67
68366;BME280;55283;51.466;5.478;2023-03-26T00:43:16;100550.13;;;20.87;46.50
68366;BME280;55283;51.466;5.478;2023-03-26T00:48:11;100551.91;;;20.94;46.57
68366;BME280;55283;51.466;5.478;2023-03-26T00:50:37;100551.91;;;20.94;46.65
68366;BME280;55283;51.466;5.478;2023-03-26T00:53:02;100545.63;;;20.90;46.54
68366;BME280;55283;51.466;5.478;2023-03-26T00:55:28;100541.25;;;20.89;46.54
68366;BME280;55283;51.466;5.478;2023-03-26T00:57:53;100542.97;;;20.86;46.62
68366;BME280;55283;51.466;5.478;2023-03-26T01:00:27;100531.06;;;20.82;46.70
68366;BME280;55283;51.466;5.478;2023-03-26T01:02:53;100521.25;;;20.77;46.53
68366;BME280;55283;51.466;5.478;2023-03-26T01:10:43;100520.22;;;20.84;46.52
68366;BME280;55283;51.466;5.478;2023-03-26T01:13:16;100518.97;;;20.85;46.68
68366;BME280;55283;51.466;5.478;2023-03-26T01:15:42;100518.19;;;20.85;46.60
68366;BME280;55283;51.466;5.478;2023-03-26T01:18:08;100513.69;;;20.87;46.61
68366;BME280;55283;51.466;5.478;2023-03-26T01:20:35;100494.66;;;20.82;46.70
68366;BME280;55283;51.466;5.478;2023-03-26T01:23:05;100485.91;;;20.80;46.49
68366;BME280;55283;51.466;5.478;2023-03-26T01:25:37;100490.16;;;20.85;46.66
68366;BME280;55283;51.466;5.478;2023-03-26T01:28:06;100471.25;;;20.76;46.80
68366;BME280;55283;51.466;5.478;2023-03-26T01:30:40;100482.22;;;20.83;46.45
68366;BME280;55283;51.466;5.478;2023-03-26T01:33:26;100481.00;;;20.84;46.44
68366;BME280;55283;51.466;5.478;2023-03-26T01:38:32;100476.28;;;20.81;46.77
68366;BME280;55283;51.466;5.478;2023-03-26T01:46:31;100472.25;;;20.82;46.68
68366;BME280;55283;51.466;5.478;2023-03-26T01:49:02;100461.50;;;20.80;46.65
68366;BME280;55283;51.466;5.478;2023-03-26T01:51:31;100459.47;;;20.81;46.53
68366;BME280;55283;51.466;5.478;2023-03-26T01:53:59;100468.53;;;20.85;46.48
68366;BME280;55283;51.466;5.478;2023-03-26T02:05:00;100438.63;;;20.82;46.58
68366;BME280;55283;51.466;5.478;2023-03-26T02:07:50;100439.19;;;20.77;46.55
68366;BME280;55283;51.466;5.478;2023-03-26T02:10:26;100442.34;;;20.79;46.76
68366;BME280;55283;51.466;5.478;2023-03-26T02:12:53;100440.31;;;20.79;46.58
68366;BME280;55283;51.466;5.478;2023-03-26T02:15:19;100432.03;;;20.76;46.63
68366;BME280;55283;51.466;5.478;2023-03-26T02:17:45;100426.78;;;20.78;46.54
68366;BME280;55283;51.466;5.478;2023-03-26T02:20:13;100418.25;;;20.82;46.70
68366;BME280;55283;51.466;5.478;2023-03-26T02:22:40;100413.06;;;20.80;46.73
68366;BME280;55283;51.466;5.478;2023-03-26T02:25:13;100418.25;;;20.82;46.54
68366;BME280;55283;51.466;5.478;2023-03-26T02:27:39;100406.38;;;20.77;46.70
68366;BME280;55283;51.466;5.478;2023-03-26T02:30:08;100395.44;;;20.70;46.74
68366;BME280;55283;51.466;5.478;2023-03-26T02:32:35;100409.19;;;20.77;46.80
68366;BME280;55283;51.466;5.478;2023-03-26T02:35:02;100403.59;;;20.77;46.50
68366;BME280;55283;51.466;5.478;2023-03-26T02:37:28;100401.88;;;20.80;46.78
68366;BME280;55283;51.466;5.478;2023-03-26T02:39:54;100403.13;;;20.79;46.52
68366;BME280;55283;51.466;5.478;2023-03-26T02:42:20;100400.31;;;20.79;46.54
68366;BME280;55283;51.466;5.478;2023-03-26T02:44:45;100378.41;;;20.65;46.77
68366;BME280;55283;51.466;5.478;2023-03-26T02:47:11;100390.81;;;20.76;46.54
68366;BME280;55283;51.466;5.478;2023-03-26T02:49:36;100383.50;;;20.79;46.54
68366;BME280;55283;51.466;5.478;2023-03-26T02:52:02;100367.75;;;20.72;46.50
68366;BME280;55283;51.466;5.478;2023-03-26T02:54:31;100349.19;;;20.66;46.63
68366;BME280;55283;51.466;5.478;2023-03-26T02:56:57;100373.09;;;20.79;46.49
68366;BME280;55283;51.466;5.478;2023-03-26T02:59:23;100370.28;;;20.79;46.45
68366;BME280;55283;51.466;5.478;2023-03-26T03:01:48;100357.06;;;20.80;46.58
68366;BME280;55283;51.466;5.478;2023-03-26T03:04:14;100357.84;;;20.80;46.47
68366;BME280;55283;51.466;5.478;2023-03-26T03:06:39;100339.59;;;20.76;46.56
68366;BME280;55283;51.466;5.478;2023-03-26T03:09:08;100353.03;;;20.81;46.35
68366;BME280;55283;51.466;5.478;2023-03-26T03:11:34;100335.34;;;20.71;46.54
68366;BME280;55283;51.466;5.478;2023-03-26T03:14:00;100344.63;;;20.81;46.46
68366;BME280;55283;51.466;5.478;2023-03-26T03:16:25;100341.06;;;20.80;46.42
68366;BME280;55283;51.466;5.478;2023-03-26T03:18:52;100333.44;;;20.81;46.47
68366;BME280;55283;51.466;5.478;2023-03-26T03:21:22;100336.22;;;20.81;46.42
68366;BME280;55283;51.466;5.478;2023-03-26T03:23:48;100336.38;;;20.77;46.48
68366;BME280;55283;51.466;5.478;2023-03-26T03:26:16;100323.91;;;20.78;46.56
68366;BME280;55283;51.466;5.478;2023-03-26T03:28:46;100325.16;;;20.77;46.49
68366;BME280;55283;51.466;5.478;2023-03-26T03:31:12;100313.47;;;20.79;46.49
68366;BME280;55283;51.466;5.478;2023-03-26T03:33:37;100303.97;;;20.76;46.43
68366;BME280;55283;51.466;5.478;2023-03-26T03:36:03;100305.09;;;20.79;46.39
68366;BME280;55283;51.466;5.478;2023-03-26T03:38:35;100309.13;;;20.78;46.60
68366;BME280;55283;51.466;5.478;2023-03-26T03:41:01;100315.94;;;20.77;46.54
68366;BME280;55283;51.466;5.478;2023-03-26T03:43:26;100304.31;;;20.78;46.66
68366;BME280;55283;51.466;5.478;2023-03-26T03:45:51;100311.16;;;20.77;46.55
68366;BME280;55283;51.466;5.478;2023-03-26T03:48:17;100302.75;;;20.77;46.39
68366;BME280;55283;51.466;5.478;2023-03-26T03:50:43;100301.94;;;20.77;46.53
68366;BME280;55283;51.466;5.478;2023-03-26T03:53:08;100301.94;;;20.77;46.46
68366;BME280;55283;51.466;5.478;2023-03-26T03:55:34;100302.75;;;20.77;46.56
68366;BME280;55283;51.466;5.478;2023-03-26T03:58:02;100288.56;;;20.72;46.68
68366;BME280;55283;51.466;5.478;2023-03-26T04:00:27;100288.41;;;20.75;46.44
68366;BME280;55283;51.466;5.478;2023-03-26T04:02:55;100273.44;;;20.69;46.53
68366;BME280;55283;51.466;5.478;2023-03-26T04:05:20;100273.56;;;20.66;46.70
68366;BME280;55283;51.466;5.478;2023-03-26T04:07:46;100281.69;;;20.73;46.62
68366;BME280;55283;51.466;5.478;2023-03-26T04:10:14;100277.66;;;20.74;46.64
68366;BME280;55283;51.466;5.478;2023-03-26T04:12:40;100271.28;;;20.73;46.56
68366;BME280;55283;51.466;5.478;2023-03-26T04:15:05;100264.91;;;20.73;46.59
68366;BME280;55283;51.466;5.478;2023-03-26T04:17:31;100254.94;;;20.72;46.50
68366;BME280;55283;51.466;5.478;2023-03-26T04:19:56;100242.50;;;20.73;46.65
68366;BME280;55283;51.466;5.478;2023-03-26T04:22:22;100232.66;;;20.68;46.60
68366;BME280;55283;51.466;5.478;2023-03-26T04:24:48;100237.66;;;20.73;46.64
68366;BME280;55283;51.466;5.478;2023-03-26T04:27:17;100231.63;;;20.75;46.55
68366;BME280;55283;51.466;5.478;2023-03-26T04:29:46;100224.31;;;20.77;46.28
68366;BME280;55283;51.466;5.478;2023-03-26T04:32:24;100218.06;;;20.73;46.38
68366;BME280;55283;51.466;5.478;2023-03-26T04:34:53;100223.06;;;20.78;46.41
68366;BME280;55283;51.466;5.478;2023-03-26T04:37:27;100214.47;;;20.73;46.56
68366;BME280;55283;51.466;5.478;2023-03-26T04:39:56;100214.47;;;20.73;46.39
68366;BME280;55283;51.466;5.478;2023-03-26T04:42:22;100207.63;;;20.74;46.48
68366;BME280;55283;51.466;5.478;2023-03-26T04:44:47;100186.16;;;20.71;46.76
68366;BME280;55283;51.466;5.478;2023-03-26T04:47:16;100178.50;;;20.71;46.40
68366;BME280;55283;51.466;5.478;2023-03-26T04:49:42;100186.81;;;20.75;46.45
68366;BME280;55283;51.466;5.478;2023-03-26T04:52:10;100186.31;;;20.76;46.42
68366;BME280;55283;51.466;5.478;2023-03-26T04:54:36;100182.41;;;20.74;46.44
68366;BME280;55283;51.466;5.478;2023-03-26T04:57:05;100179.63;;;20.74;46.49
68366;BME280;55283;51.466;5.478;2023-03-26T04:59:33;100166.25;;;20.69;46.68
68366;BME280;55283;51.466;5.478;2023-03-26T05:02:00;100175.59;;;20.75;46.58
68366;BME280;55283;51.466;5.478;2023-03-26T05:04:26;100170.00;;;20.75;46.39
68366;BME280;55283;51.466;5.478;2023-03-26T05:06:56;100171.22;;;20.74;46.70
68366;BME280;55283;51.466;5.478;2023-03-26T05:09:25;100164.41;;;20.75;46.50
68366;BME280;55283;51.466;5.478;2023-03-26T05:11:51;100162.03;;;20.73;46.46
68366;BME280;55283;51.466;5.478;2023-03-26T05:14:17;100160.00;;;20.74;46.43
68366;BME280;55283;51.466;5.478;2023-03-26T05:16:45;100157.22;;;20.74;46.58
68366;BME280;55283;51.466;5.478;2023-03-26T05:19:12;100146.81;;;20.74;46.45
68366;BME280;55283;51.466;5.478;2023-03-26T05:21:37;100149.63;;;20.74;46.64
68366;BME280;55283;51.466;5.478;2023-03-26T05:24:03;100142.09;;;20.71;46.58
68366;BME280;55283;51.466;5.478;2023-03-26T05:26:31;100139.44;;;20.68;46.54
68366;BME280;55283;51.466;5.478;2023-03-26T05:28:56;100139.78;;;20.70;46.60
68366;BME280;55283;51.466;5.478;2023-03-26T05:31:22;100143.69;;;20.72;46.44
68366;BME280;55283;51.466;5.478;2023-03-26T05:33:48;100130.44;;;20.64;46.79
68366;BME280;55283;51.466;5.478;2023-03-26T05:36:15;100138.88;;;20.73;46.83
68366;BME280;55283;51.466;5.478;2023-03-26T05:38:41;100126.69;;;20.67;47.57
68366;BME280;55283;51.466;5.478;2023-03-26T05:41:11;100122.19;;;20.69;47.34
68366;BME280;55283;51.466;5.478;2023-03-26T05:43:36;100103.81;;;20.68;47.49
68366;BME280;55283;51.466;5.478;2023-03-26T05:46:02;100109.59;;;20.74;47.78
68366;BME280;55283;51.466;5.478;2023-03-26T05:48:27;100105.25;;;20.73;48.19
68366;BME280;55283;51.466;5.478;2023-03-26T05:50:55;100109.19;;;20.85;47.76
68366;BME280;55283;51.466;5.478;2023-03-26T05:53:21;100097.38;;;20.90;47.67
68366;BME280;55283;51.466;5.478;2023-03-26T05:55:48;100097.06;;;20.88;47.95
68366;BME280;55283;51.466;5.478;2023-03-26T05:58:28;100095.94;;;20.85;48.20
68366;BME280;55283;51.466;5.478;2023-03-26T06:00:59;100091.44;;;20.78;48.35
68366;BME280;55283;51.466;5.478;2023-03-26T06:03:27;100086.75;;;20.75;48.51
68366;BME280;55283;51.466;5.478;2023-03-26T06:05:52;100086.28;;;20.77;48.60
68366;BME280;55283;51.466;5.478;2023-03-26T06:08:19;100081.59;;;20.74;48.59
68366;BME280;55283;51.466;5.478;2023-03-26T06:10:44;100081.78;;;20.79;48.25
68366;BME280;55283;51.466;5.478;2023-03-26T06:13:10;100076.53;;;20.91;48.05
68366;BME280;55283;51.466;5.478;2023-03-26T06:15:36;100060.63;;;20.88;48.49
68366;BME280;55283;51.466;5.478;2023-03-26T06:18:01;100072.50;;;21.01;48.06
68366;BME280;55283;51.466;5.478;2023-03-26T06:20:27;100069.19;;;20.84;48.31
68366;BME280;55283;51.466;5.478;2023-03-26T06:22:52;100067.31;;;20.81;47.94
68366;BME280;55283;51.466;5.478;2023-03-26T06:25:18;100063.25;;;20.82;47.74
68366;BME280;55283;51.466;5.478;2023-03-26T06:27:43;100062.50;;;20.91;47.60
68366;BME280;55283;51.466;5.478;2023-03-26T06:30:10;100060.19;;;20.89;47.46
68366;BME280;55283;51.466;5.478;2023-03-26T06:32:35;100062.34;;;20.85;47.49
68366;BME280;55283;51.466;5.478;2023-03-26T06:35:01;100061.72;;;20.81;47.55
68366;BME280;55283;51.466;5.478;2023-03-26T06:37:26;100067.91;;;20.76;47.56
68366;BME280;55283;51.466;5.478;2023-03-26T06:39:52;100067.16;;;20.85;46.89
68366;BME280;55283;51.466;5.478;2023-03-26T06:42:17;100071.50;;;20.76;45.21
68366;BME280;55283;51.466;5.478;2023-03-26T06:44:43;100067.28;;;20.72;45.37
68366;BME280;55283;51.466;5.478;2023-03-26T06:47:08;100068.41;;;20.74;45.86
68366;BME280;55283;51.466;5.478;2023-03-26T06:49:33;100067.47;;;20.77;46.34
68366;BME280;55283;51.466;5.478;2023-03-26T06:51:59;100073.19;;;20.74;46.52
68366;BME280;55283;51.466;5.478;2023-03-26T06:54:27;100073.16;;;20.65;46.91
68366;BME280;55283;51.466;5.478;2023-03-26T06:56:52;100073.31;;;20.61;46.87
68366;BME280;55283;51.466;5.478;2023-03-26T06:59:18;100071.28;;;20.62;46.80
68366;BME280;55283;51.466;5.478;2023-03-26T07:01:43;100063.66;;;20.62;46.99
68366;BME280;55283;51.466;5.478;2023-03-26T07:04:09;100067.09;;;20.57;47.63
68366;BME280;55283;51.466;5.478;2023-03-26T07:06:35;100061.78;;;20.59;47.62
68366;BME280;55283;51.466;5.478;2023-03-26T07:09:00;100067.56;;;20.65;47.20
68366;BME280;55283;51.466;5.478;2023-03-26T07:11:26;100050.59;;;20.59;47.57
68366;BME280;55283;51.466;5.478;2023-03-26T07:13:52;100059.50;;;20.67;47.41
68366;BME280;55283;51.466;5.478;2023-03-26T07:16:17;100049.53;;;20.66;47.42
68366;BME280;55283;51.466;5.478;2023-03-26T07:18:42;100045.31;;;20.61;47.61
68366;BME280;55283;51.466;5.478;2023-03-26T07:21:08;100037.19;;;20.54;47.50
68366;BME280;55283;51.466;5.478;2023-03-26T07:23:34;100054.34;;;20.65;47.50
68366;BME280;55283;51.466;5.478;2023-03-26T07:26:33;100042.84;;;20.63;47.57
68366;BME280;55283;51.466;5.478;2023-03-26T07:32:27;100049.63;;;20.53;47.95
68366;BME280;55283;51.466;5.478;2023-03-26T07:35:31;100041.41;;;20.58;47.74
68366;BME280;55283;51.466;5.478;2023-03-26T07:38:10;100031.47;;;20.57;47.95
68366;BME280;55283;51.466;5.478;2023-03-26T07:45:56;100035.63;;;20.53;47.92
68366;BME280;55283;51.466;5.478;2023-03-26T07:48:26;100028.66;;;20.57;47.83
68366;BME280;55283;51.466;5.478;2023-03-26T07:50:54;100017.91;;;20.56;47.87
68366;BME280;55283;51.466;5.478;2023-03-26T07:53:20;100025.22;;;20.53;47.59
68366;BME280;55283;51.466;5.478;2023-03-26T08:01:13;100019.63;;;20.63;47.48
68366;BME280;55283;51.466;5.478;2023-03-26T08:08:59;100014.34;;;20.65;47.58
68366;BME280;55283;51.466;5.478;2023-03-26T08:22:17;100002.03;;;20.53;47.90
68366;BME280;55283;51.466;5.478;2023-03-26T08:27:39;100000.63;;;20.48;48.62
68366;BME280;55283;51.466;5.478;2023-03-26T08:30:20;99985.53;;;20.46;47.82
68366;BME280;55283;51.466;5.478;2023-03-26T08:32:59;99996.59;;;20.49;47.79
68366;BME280;55283;51.466;5.478;2023-03-26T08:35:27;99999.38;;;20.49;47.88
68366;BME280;55283;51.466;5.478;2023-03-26T08:37:53;99991.63;;;20.53;47.89
68366;BME280;55283;51.466;5.478;2023-03-26T08:59:52;99996.75;;;20.55;48.27
68366;BME280;55283;51.466;5.478;2023-03-26T09:08:33;99992.69;;;20.47;48.15
68366;BME280;55283;51.466;5.478;2023-03-26T09:17:08;99980.72;;;20.46;48.28
68366;BME280;55283;51.466;5.478;2023-03-26T09:25:52;99987.25;;;20.43;48.36
68366;BME280;55283;51.466;5.478;2023-03-26T09:33:58;99988.63;;;20.48;48.32
68366;BME280;55283;51.466;5.478;2023-03-26T09:36:43;99992.84;;;20.43;48.24
68366;BME280;55283;51.466;5.478;2023-03-26T09:39:16;99989.28;;;20.52;48.15
68366;BME280;55283;51.466;5.478;2023-03-26T09:50:26;99983.53;;;20.46;48.21
68366;BME280;55283;51.466;5.478;2023-03-26T09:55:48;99989.44;;;20.48;48.35
68366;BME280;55283;51.466;5.478;2023-03-26T10:00:51;99990.22;;;20.49;48.84
68366;BME280;55283;51.466;5.478;2023-03-26T10:04:13;99988.53;;;20.51;48.25
68366;BME280;55283;51.466;5.478;2023-03-26T10:06:35;99996.47;;;20.62;48.27
68366;BME280;55283;51.466;5.478;2023-03-26T10:09:16;99993.63;;;20.53;48.66
68366;BME280;55283;51.466;5.478;2023-03-26T10:12:17;99997.09;;;20.57;48.68
68366;BME280;55283;51.466;5.478;2023-03-26T10:20:54;99995.06;;;20.57;48.74
68366;BME280;55283;51.466;5.478;2023-03-26T10:28:41;99994.59;;;20.59;48.91
68366;BME280;55283;51.466;5.478;2023-03-26T10:53:27;100011.88;;;20.67;49.27
68366;BME280;55283;51.466;5.478;2023-03-26T10:56:01;100015.00;;;20.69;49.53
68366;BME280;55283;51.466;5.478;2023-03-26T10:58:31;100018.59;;;20.69;49.25
68366;BME280;55283;51.466;5.478;2023-03-26T11:01:03;100010.47;;;20.71;48.93
68366;BME280;55283;51.466;5.478;2023-03-26T11:14:15;100017.50;;;20.76;49.06
68366;BME280;55283;51.466;5.478;2023-03-26T11:16:48;100008.47;;;20.72;48.91
68366;BME280;55283;51.466;5.478;2023-03-26T11:27:57;100016.72;;;20.75;49.25
68366;BME280;55283;51.466;5.478;2023-03-26T11:33:17;100026.53;;;20.80;49.12
68366;BME280;55283;51.466;5.478;2023-03-26T11:35:50;100029.31;;;20.80;49.21
68366;BME280;55283;51.466;5.478;2023-03-26T11:38:22;100023.28;;;20.82;48.94
68366;BME280;55283;51.466;5.478;2023-03-26T11:40:55;100032.44;;;20.82;49.48
68366;BME280;55283;51.466;5.478;2023-03-26T11:43:26;100040.25;;;20.87;48.71
68366;BME280;55283;51.466;5.478;2023-03-26T11:45:54;100039.16;;;20.85;48.79
68366;BME280;55283;51.466;5.478;2023-03-26T11:48:32;100035.56;;;20.84;49.19
68366;BME280;55283;51.466;5.478;2023-03-26T11:51:33;100039.47;;;20.87;49.08
68366;BME280;55283;51.466;5.478;2023-03-26T11:54:04;100039.00;;;20.88;49.07
68366;BME280;55283;51.466;5.478;2023-03-26T11:56:43;100040.56;;;20.89;49.11
68366;BME280;55283;51.466;5.478;2023-03-26T11:59:15;100039.00;;;20.88;48.78
68366;BME280;55283;51.466;5.478;2023-03-26T12:02:16;100043.53;;;20.95;48.87
68366;BME280;55283;51.466;5.478;2023-03-26T12:04:43;100042.91;;;20.91;49.07
68366;BME280;55283;51.466;5.478;2023-03-26T12:10:09;100042.13;;;20.90;49.41
68366;BME280;55283;51.466;5.478;2023-03-26T12:12:39;100042.44;;;20.92;49.33
68366;BME280;55283;51.466;5.478;2023-03-26T12:15:13;100048.06;;;20.92;49.38
68366;BME280;55283;51.466;5.478;2023-03-26T12:17:39;100050.38;;;20.94;49.11
68366;BME280;55283;51.466;5.478;2023-03-26T12:23:01;100043.38;;;20.89;48.94
68366;BME280;55283;51.466;5.478;2023-03-26T12:25:31;100046.47;;;20.91;49.28
68366;BME280;55283;51.466;5.478;2023-03-26T12:28:27;100054.44;;;21.02;49.19
68366;BME280;55283;51.466;5.478;2023-03-26T12:31:01;100050.53;;;20.99;49.28
68366;BME280;55283;51.466;5.478;2023-03-26T12:33:31;100049.63;;;21.02;49.47
68366;BME280;55283;51.466;5.478;2023-03-26T12:36:22;100054.44;;;21.02;49.88
68366;BME280;55283;51.466;5.478;2023-03-26T12:38:51;100066.09;;;21.00;50.40
68366;BME280;55283;51.466;5.478;2023-03-26T12:41:18;100069.38;;;20.99;50.05
68366;BME280;55283;51.466;5.478;2023-03-26T12:43:45;100061.44;;;20.97;50.55
68366;BME280;55283;51.466;5.478;2023-03-26T12:46:33;100060.19;;;20.98;49.95
68366;BME280;55283;51.466;5.478;2023-03-26T12:49:06;100058.34;;;20.95;50.50
68366;BME280;55283;51.466;5.478;2023-03-26T12:57:07;100066.09;;;21.00;50.14
68366;BME280;55283;51.466;5.478;2023-03-26T13:11:39;100078.28;;;21.07;49.58
68366;BME280;55283;51.466;5.478;2023-03-26T13:16:19;100075.31;;;21.01;50.01
68366;BME280;55283;51.466;5.478;2023-03-26T13:27:02;100087.75;;;21.09;49.70
68366;BME280;55283;51.466;5.478;2023-03-26T13:29:39;100090.25;;;21.07;50.50
68366;BME280;55283;51.466;5.478;2023-03-26T13:32:26;100094.78;;;21.05;50.24
68366;BME280;55283;51.466;5.478;2023-03-26T13:43:40;100093.25;;;21.13;49.49
68366;BME280;55283;51.466;5.478;2023-03-26T13:46:34;100101.16;;;21.14;49.48
68366;BME280;55283;51.466;5.478;2023-03-26T13:49:10;100089.19;;;21.14;49.68
68366;BME280;55283;51.466;5.478;2023-03-26T14:02:34;100110.38;;;21.15;49.64
68366;BME280;55283;51.466;5.478;2023-03-26T14:05:10;100114.41;;;21.14;49.80
68366;BME280;55283;51.466;5.478;2023-03-26T14:07:43;100111.59;;;21.14;50.00
68366;BME280;55283;51.466;5.478;2023-03-26T14:10:16;100124.19;;;21.09;50.99
68366;BME280;55283;51.466;5.478;2023-03-26T14:13:01;100117.81;;;21.09;51.89
68366;BME280;55283;51.466;5.478;2023-03-26T14:30:56;100151.41;;;20.99;51.44
68366;BME280;55283;51.466;5.478;2023-03-26T14:33:34;100156.38;;;20.95;51.24
68366;BME280;55283;51.466;5.478;2023-03-26T14:36:23;100166.13;;;20.82;51.39
68366;BME280;55283;51.466;5.478;2023-03-26T14:41:49;100166.09;;;20.72;51.39
68366;BME280;55283;51.466;5.478;2023-03-26T14:47:21;100178.78;;;20.86;51.00
68366;BME280;55283;51.466;5.478;2023-03-26T14:50:18;100179.06;;;20.88;51.31
68366;BME280;55283;51.466;5.478;2023-03-26T14:52:52;100191.22;;;20.94;51.72
68366;BME280;55283;51.466;5.478;2023-03-26T15:01:17;100202.44;;;20.94;50.92
68366;BME280;55283;51.466;5.478;2023-03-26T15:35:42;100277.34;;;21.03;50.32
68366;BME280;55283;51.466;5.478;2023-03-26T15:55:04;100311.47;;;21.01;50.06
68366;BME280;55283;51.466;5.478;2023-03-26T16:00:28;100323.00;;;21.03;49.84
68366;BME280;55283;51.466;5.478;2023-03-26T16:10:57;100341.88;;;20.90;50.31
68366;BME280;55283;51.466;5.478;2023-03-26T16:13:32;100339.09;;;20.90;50.28
68366;BME280;55283;51.466;5.478;2023-03-26T16:18:30;100350.69;;;21.01;50.09
68366;BME280;55283;51.466;5.478;2023-03-26T16:21:03;100353.50;;;21.01;50.04
68366;BME280;55283;51.466;5.478;2023-03-26T16:23:55;100352.56;;;21.05;50.06
68366;BME280;55283;51.466;5.478;2023-03-26T16:26:36;100355.19;;;20.99;49.98
68366;BME280;55283;51.466;5.478;2023-03-26T16:34:26;100376.53;;;21.06;49.93
68366;BME280;55283;51.466;5.478;2023-03-26T16:36:53;100387.31;;;21.07;49.73
68366;BME280;55283;51.466;5.478;2023-03-26T16:39:22;100385.41;;;21.04;49.90
68366;BME280;55283;51.466;5.478;2023-03-26T16:41:53;100387.75;;;21.06;49.91
68366;BME280;55283;51.466;5.478;2023-03-26T16:58:09;100434.75;;;21.01;49.86
68366;BME280;55283;51.466;5.478;2023-03-26T17:01:06;100445.50;;;21.03;49.93
68366;BME280;55283;51.466;5.478;2023-03-26T17:04:45;100452.34;;;21.02;49.89
68366;BME280;55283;51.466;5.478;2023-03-26T17:12:21;100467.97;;;20.90;50.00
68366;BME280;55283;51.466;5.478;2023-03-26T17:30:59;100527.78;;;20.96;50.11
68366;BME280;55283;51.466;5.478;2023-03-26T17:33:33;100539.78;;;20.97;50.30
68366;BME280;55283;51.466;5.478;2023-03-26T17:41:09;100548.75;;;20.92;50.28
68366;BME280;55283;51.466;5.478;2023-03-26T17:43:45;100555.03;;;20.96;50.14
68366;BME280;55283;51.466;5.478;2023-03-26T17:46:36;100565.22;;;21.02;50.03
68366;BME280;55283;51.466;5.478;2023-03-26T17:51:51;100578.88;;;21.00;50.11
68366;BME280;55283;51.466;5.478;2023-03-26T17:54:23;100580.47;;;21.01;49.87
68366;BME280;55283;51.466;5.478;2023-03-26T17:56:52;100592.31;;;21.06;49.82
68366;BME280;55283;51.466;5.478;2023-03-26T17:59:21;100602.63;;;21.09;49.79
68366;BME280;55283;51.466;5.478;2023-03-26T18:01:54;100604.00;;;21.04;49.87
68366;BME280;55283;51.466;5.478;2023-03-26T18:04:31;100615.09;;;21.08;49.98
68366;BME280;55283;51.466;5.478;2023-03-26T18:20:34;100641.56;;;21.07;49.90
68366;BME280;55283;51.466;5.478;2023-03-26T18:23:08;100646.03;;;21.04;49.87
68366;BME280;55283;51.466;5.478;2023-03-26T18:25:34;100650.88;;;21.03;49.71
68366;BME280;55283;51.466;5.478;2023-03-26T18:28:00;100645.34;;;21.00;49.76
68366;BME280;55283;51.466;5.478;2023-03-26T18:30:28;100658.38;;;21.07;49.86
68366;BME280;55283;51.466;5.478;2023-03-26T18:33:13;100663.28;;;21.02;49.54
68366;BME280;55283;51.466;5.478;2023-03-26T18:35:57;100671.69;;;21.02;50.08
68366;BME280;55283;51.466;5.478;2023-03-26T18:38:23;100681.22;;;21.05;49.91
68366;BME280;55283;51.466;5.478;2023-03-26T18:40:51;100689.75;;;21.01;49.73
68366;BME280;55283;51.466;5.478;2023-03-26T18:43:20;100696.50;;;21.04;49.68
68366;BME280;55283;51.466;5.478;2023-03-26T18:45:50;100696.16;;;21.02;49.60
68366;BME280;55283;51.466;5.478;2023-03-26T18:48:22;100703.53;;;21.09;49.91
68366;BME280;55283;51.466;5.478;2023-03-26T18:51:04;100704.44;;;21.06;49.79
68366;BME280;55283;51.466;5.478;2023-03-26T18:53:37;100715.63;;;21.06;49.66
68366;BME280;55283;51.466;5.478;2023-03-26T18:58:51;100733.69;;;21.05;49.78
68366;BME280;55283;51.466;5.478;2023-03-26T19:01:17;100734.94;;;21.03;50.00
68366;BME280;55283;51.466;5.478;2023-03-26T19:03:45;100737.41;;;21.01;49.95
68366;BME280;55283;51.466;5.478;2023-03-26T19:06:13;100743.44;;;21.00;49.90
68366;BME280;55283;51.466;5.478;2023-03-26T19:08:41;100742.31;;;20.97;49.92
68366;BME280;55283;51.466;5.478;2023-03-26T19:11:08;100743.91;;;20.98;49.82
68366;BME280;55283;51.466;5.478;2023-03-26T19:13:37;100770.25;;;21.01;49.88
68366;BME280;55283;51.466;5.478;2023-03-26T19:16:21;100763.53;;;20.98;49.84
68366;BME280;55283;51.466;5.478;2023-03-26T19:18:48;100770.69;;;20.99;49.89
68366;BME280;55283;51.466;5.478;2023-03-26T19:21:14;100779.09;;;20.99;49.76
68366;BME280;55283;51.466;5.478;2023-03-26T19:23:42;100785.16;;;20.98;49.92
68366;BME280;55283;51.466;5.478;2023-03-26T19:26:10;100797.16;;;20.98;49.99